KEGE Airport Information

Runway Information
Runway 07 Length 9000 ft width 150 ft
Elevation 6461 ft Threshold 0 ft Heading 82
Runway 25 Length 9000 ft Width 150 ft
Elevation 6547 ft Threshold 1000 ft Heading 262
Runway 08 Length 5013 ft width 60 ft
Elevation 0 ft Threshold 0 ft Heading 90
Runway 26 Length 5013 ft Width 60 ft
Elevation 0 ft Threshold 0 ft Heading 270
Airport Frequencies
Type ATIS Name ATIS Frequency 135.575 MHZ
Type AWOS Name AWOS 3 Frequency 135.575 MHZ
Type CNTR Name DENVER CNT Frequency 128.65 MHZ
Type CTAF Name CTAF Frequency 119.8 MHZ
Type GCCD Name GND/CLNC D Frequency 121.8 MHZ
Type MISC Name EAGLES NES Frequency 41.75 MHZ
Type RDO Name DENVER RDO Frequency 122.2 MHZ
Type TWR Name TWR Frequency 119.8 MHZ
Airport Navaids
Type VOR-DME Name Snow Frequency 109200 KHZ
Airport Weather Information & NOTAM
ADDS - METARS form results

(0148 UTC 19 January 2018)
 
METAR text: KEGE 190056Z 09003KT 10SM CLR 00/M09 A3022 RMK AO2 SLP302 T00001094
Conditions at: KEGE (EAGLE CO. REGION, CO, US) observed 0056 UTC 19 January 2018
Temperature: 0.0°C (32°F)
Dewpoint: -9.4°C (15°F) [RH = 49%]
Pressure (altimeter): 30.22 inches Hg (1023.5 mb)
[Sea-level pressure: 1030.2 mb]
Winds: from the E (90 degrees) at 3 MPH (3 knots; 1.6 m/s)
Visibility: 10 or more miles (16+ km)
Ceiling: at least 12,000 feet AGL
Clouds: sky clear below 12,000 feet AGL
Weather: no significant weather observed at this time